Hlavní strana
METAR-TAF:

METAR-TAF

Letiště :

Treviso, Itálie

zeměpisná šířka: 45-41N, zeměpisná délka: 012-06E, výška: 45 m

Aktuální stav počasí

Zpráva byla vytvořena před 1 hodinou a 17 minutami, v 09:55 UTC
Severní vítr 3 kt
Teplota 27°C
Vlhkost vzduchu 51%
Tlak 1015 hPa
Viditelnost 10 km a více
Skoro jasno ve výšce 2000 ft

METAR: LIPS 250955Z 35003KT 9999 FEW020 27/16 Q1015 RMK FEW VIS MIN 9999 WIND THR26 /////KT WIND THR08 34002KT BLU

Čas: 13:12 (11:12 UTC)

Předpověď počasí

Zpráva byla vytvořena před 12 minutami, v 11:00 UTC
Předpověď platná od 24 v 12 UTC do 24 v 21 UTC
vítr z různých směrů 3 kt
Viditelnost 10 km a více
Polojasno ve výšce 2500 ft
Polojasno ve výšce 7000 ft
Dočasný
od 24 v 12 UTC do 24 v 18 UTC
Skoro jasno ve výšce 2000 ft, Cumulonimbus.
Oblačno až skoro zataženo ve výšce 3000 ft

TAF: LIPS 241100Z 2412/2421 VRB03KT 9999 SCT025 SCT070 TEMPO 2412/2418 FEW020CB BKN030

Stav a předpovědi počasí z více než 4 000 letišť (zprávy METAR a TAF).

Červené a žluté tečky na mapě představují dostupné meteorologické stanice.

Když kurzor umístíte na tečku, zobrazí se název stanice.

Pak kliknutím zobrazíte stav a předpověď počasí.

Chcete-li změnit mapu, kliknutím na zelené tlačítko se znaménkem +mapu přiblížíte, kliknutím na zelené tlačítko se znaménkem – mapu oddálíte a kliknutím na zelené šipky přejdete na sousední mapy.


METAR-TAF: